Terminal Aerodrome Forecast
Issued by NWS

Home | Current Version | Previous Version | Text Only | Print | Product List | Glossary On
Versions: 1 2 3 4 5 6 7 8 9 10 11 12 13 14 15 16 17 18
000
FTAK31 PANC 071729
TAFADU
TAF
PADU 071729Z 0718/0818 33020G33KT P6SM -RASN FEW015 BKN025 OVC035
      TEMPO 0718/0722 FEW015 SCT025 BKN035
      AMD LTD TO CLD VIS AND WX 0804/0816=

USA.gov is the U.S. government's official web portal to all federal, state and local government web resources and services.